Time;durP1;ratioP1;P1;durP2;ratioP2;P2;SDS_P1;SDS_P2;PMS_P1;PMS_P2;Temp;Humidity;BMP_temperature;BMP_pressure;BME280_temperature;BME280_humidity;BME280_pressure;Samples;Min_cycle;Max_cycle;Signal;HPM_P1;HPM_P2
2023/01/10 07:22:23;;;;;;;11.95;3.42;;;19.50;95.90;;;;;;5083139;28;20101;-49
2023/01/10 07:33:34;;;;;;;7.82;1.88;;;18.10;96.80;;;;;;5061116;28;20415;-41
2023/01/10 07:36:01;;;;;;;7.45;2.20;;;18.30;97.90;;;;;;5052112;28;20479;-43
2023/01/10 07:41:01;;;;;;;14.45;4.35;;;18.70;94.70;;;;;;5088173;28;20162;-65
2023/01/10 07:43:27;;;;;;;8.68;4.43;;;14.30;97.10;;;;;;5083646;28;20415;-67
2023/01/10 07:45:53;;;;;;;18.45;5.63;;;11.40;99.90;;;;;;5095651;28;20102;-67
2023/01/10 07:48:18;;;;;;;13.02;5.00;;;9.70;99.90;;;;;;5088088;28;20632;-67
2023/01/10 07:50:44;;;;;;;12.90;5.80;;;8.50;99.90;;;;;;5085651;28;20497;-68
2023/01/10 07:53:10;;;;;;;17.98;6.65;;;7.90;99.90;;;;;;5087662;28;20078;-70
2023/01/10 07:55:38;;;;;;;24.73;7.38;;;7.50;99.90;;;;;;5088158;28;20020;-67
2023/01/10 07:58:06;;;;;;;22.63;7.43;;;7.20;99.90;;;;;;5075798;28;20094;-67
2023/01/10 08:00:33;;;;;;;16.40;7.47;;;6.90;99.90;;;;;;5103169;23;20072;-68
2023/01/10 08:02:58;;;;;;;13.48;6.78;;;6.90;99.90;;;;;;5062780;28;20435;-68
2023/01/10 08:05:24;;;;;;;26.40;8.23;;;6.70;99.90;;;;;;5057742;28;20021;-67
2023/01/10 08:07:51;;;;;;;19.77;8.13;;;6.50;99.90;;;;;;5060079;28;20037;-70
2023/01/10 08:10:16;;;;;;;21.80;8.38;;;6.40;99.90;;;;;;5048311;28;20556;-69
2023/01/10 08:12:42;;;;;;;20.45;8.38;;;6.40;99.90;;;;;;5056516;28;20032;-69
2023/01/10 08:15:09;;;;;;;24.50;8.68;;;6.40;99.90;;;;;;5046178;28;20036;-70
2023/01/10 08:17:36;;;;;;;33.53;8.48;;;6.40;99.90;;;;;;5048551;28;20033;-66
2023/01/10 08:20:02;;;;;;;32.78;8.68;;;6.40;99.90;;;;;;5053608;28;20037;-66
2023/01/10 08:22:27;;;;;;;21.27;9.02;;;6.40;99.90;;;;;;5057937;28;20394;-67
2023/01/10 08:24:53;;;;;;;28.73;10.70;;;6.40;99.90;;;;;;5057854;28;20073;-68
2023/01/10 08:27:19;;;;;;;23.35;7.68;;;6.30;99.90;;;;;;5050750;28;20059;-68
2023/01/10 08:29:44;;;;;;;18.83;8.35;;;6.40;99.90;;;;;;5050779;28;20056;-68
2023/01/10 08:32:10;;;;;;;15.27;7.90;;;6.50;99.90;;;;;;5046927;28;20037;-66
2023/01/10 08:34:36;;;;;;;18.55;7.60;;;6.30;99.90;;;;;;5058937;28;20020;-67
2023/01/10 08:37:02;;;;;;;19.13;9.20;;;6.40;99.90;;;;;;5047386;28;20052;-69
2023/01/10 08:39:29;;;;;;;18.77;8.55;;;6.30;99.90;;;;;;5054143;28;20411;-66
2023/01/10 08:41:55;;;;;;;21.67;9.65;;;6.40;99.90;;;;;;5053172;28;20029;-65
2023/01/10 08:44:21;;;;;;;19.40;8.20;;;6.50;99.90;;;;;;5061508;28;20493;-65
2023/01/10 08:46:47;;;;;;;14.85;7.95;;;6.50;99.90;;;;;;5046085;28;20059;-71
2023/01/10 08:49:13;;;;;;;17.95;8.55;;;6.60;99.90;;;;;;5051087;28;20102;-69
2023/01/10 08:51:39;;;;;;;29.38;10.55;;;6.50;99.90;;;;;;5042145;28;20518;-68
2023/01/10 08:54:04;;;;;;;18.23;7.65;;;6.50;99.90;;;;;;5042406;28;20122;-69
2023/01/10 08:56:30;;;;;;;19.02;7.93;;;6.50;99.90;;;;;;5031480;28;20292;-68
2023/01/10 08:58:56;;;;;;;24.00;9.20;;;6.40;99.90;;;;;;5045037;28;20110;-68
2023/01/10 09:01:22;;;;;;;16.58;7.97;;;6.40;99.90;;;;;;5028610;28;20072;-69
2023/01/10 09:03:47;;;;;;;29.55;9.25;;;6.30;99.90;;;;;;5039674;28;20191;-66
2023/01/10 09:06:13;;;;;;;14.55;8.55;;;6.50;99.90;;;;;;5034256;28;20330;-71
2023/01/10 09:08:39;;;;;;;18.63;8.85;;;8.40;99.90;;;;;;5046875;28;20084;-68
2023/01/10 09:11:05;;;;;;;14.65;8.20;;;6.60;99.90;;;;;;5041726;28;20208;-71
2023/01/10 09:13:31;;;;;;;14.57;7.82;;;6.60;99.90;;;;;;5028368;28;20025;-68
2023/01/10 09:15:58;;;;;;;19.13;7.85;;;6.70;99.90;;;;;;5040884;28;20033;-66
2023/01/10 09:18:24;;;;;;;22.55;8.57;;;6.80;99.90;;;;;;5032730;28;20427;-67
2023/01/10 09:20:50;;;;;;;15.75;8.30;;;6.90;99.90;;;;;;5031842;28;20048;-69
2023/01/10 09:23:19;;;;;;;29.63;8.57;;;6.90;99.90;;;;;;5040747;28;20561;-69
2023/01/10 09:25:46;;;;;;;14.80;8.77;;;6.80;99.90;;;;;;5039629;28;20521;-68
2023/01/10 09:28:12;;;;;;;24.30;8.30;;;6.80;99.90;;;;;;5033098;28;20080;-70
2023/01/10 09:30:38;;;;;;;14.07;6.65;;;6.80;99.90;;;;;;5036393;28;20025;-68
2023/01/10 09:33:05;;;;;;;19.48;7.15;;;6.70;99.90;;;;;;5043326;28;20112;-68
2023/01/10 09:35:31;;;;;;;19.83;7.53;;;6.70;99.90;;;;;;5037485;28;20055;-68
2023/01/10 09:38:02;;;;;;;14.60;7.65;;;6.70;99.90;;;;;;5036148;28;20499;-67
2023/01/10 09:40:38;;;;;;;23.48;8.45;;;6.70;99.90;;;;;;5045018;28;20424;-68
2023/01/10 09:43:26;;;;;;;18.65;7.72;;;6.70;99.90;;;;;;5033574;28;20029;-67
2023/01/10 09:46:01;;;;;;;25.17;9.07;;;6.80;99.90;;;;;;5035814;28;20025;-69
2023/01/10 09:48:38;;;;;;;17.95;7.18;;;6.80;99.90;;;;;;5045118;28;20188;-69
2023/01/10 09:51:17;;;;;;;17.98;6.80;;;6.90;99.90;;;;;;5042800;28;20030;-70
2023/01/10 09:53:44;;;;;;;29.60;9.02;;;6.90;99.90;;;;;;5038975;28;20029;-67
2023/01/10 09:56:14;;;;;;;23.50;7.63;;;6.20;99.90;;;;;;5033274;28;20033;-69
2023/01/10 09:58:40;;;;;;;17.08;6.80;;;6.90;99.90;;;;;;5043002;28;20745;-68
2023/01/10 10:01:11;;;;;;;20.00;8.50;;;6.80;99.90;;;;;;5043252;28;20039;-68
2023/01/10 10:04:10;;;;;;;21.58;8.18;;;6.70;99.90;;;;;;5036841;28;20025;-66
2023/01/10 10:06:36;;;;;;;15.23;8.93;;;6.70;99.90;;;;;;5044173;28;20032;-67
2023/01/10 10:09:02;;;;;;;18.20;7.95;;;6.80;99.90;;;;;;5044231;28;20040;-69
2023/01/10 10:12:12;;;;;;;11.18;7.38;;;7.00;99.90;;;;;;5039074;28;20230;-69
2023/01/10 10:15:02;;;;;;;21.08;7.43;;;7.40;99.90;;;;;;5012567;28;20125;-71
2023/01/10 10:17:55;;;;;;;19.13;7.43;;;7.40;99.90;;;;;;5038552;28;20025;-67
2023/01/10 10:20:39;;;;;;;20.88;6.57;;;7.40;99.90;;;;;;5043137;28;20473;-69
2023/01/10 10:23:26;;;;;;;33.13;7.63;;;7.30;99.90;;;;;;5033427;28;20025;-70
2023/01/10 10:26:05;;;;;;;20.33;6.45;;;7.20;99.90;;;;;;5035247;28;20386;-71
2023/01/10 10:28:43;;;;;;;12.15;6.82;;;7.20;99.90;;;;;;5043756;28;20116;-69
2023/01/10 10:31:08;;;;;;;16.27;6.63;;;7.20;99.90;;;;;;5033066;28;20390;-68
2023/01/10 10:34:01;;;;;;;33.47;8.30;;;7.40;99.90;;;;;;5037927;28;20059;-69
2023/01/10 10:36:55;;;;;;;19.30;5.18;;;7.50;99.90;;;;;;5042956;28;20028;-69
2023/01/10 10:39:30;;;;;;;18.65;6.88;;;7.30;99.90;;;;;;5039112;28;20041;-68
2023/01/10 10:41:56;;;;;;;19.30;6.20;;;7.40;99.90;;;;;;5041454;28;20337;-68
2023/01/10 10:44:31;;;;;;;11.32;5.15;;;7.30;99.90;;;;;;5033003;28;20204;-67
2023/01/10 10:47:00;;;;;;;16.95;5.18;;;7.30;99.90;;;;;;5032812;28;20051;-67
2023/01/10 10:49:45;;;;;;;17.65;5.25;;;7.50;99.90;;;;;;5038718;28;20037;-66
2023/01/10 10:52:22;;;;;;;12.88;5.47;;;7.40;99.90;;;;;;5035747;28;20032;-71
2023/01/10 10:54:48;;;;;;;21.75;4.68;;;7.30;99.90;;;;;;5030030;28;20044;-69
2023/01/10 10:57:14;;;;;;;14.00;4.45;;;7.40;99.90;;;;;;5040350;28;20034;-71
2023/01/10 10:59:43;;;;;;;20.45;5.18;;;7.40;99.90;;;;;;5036393;28;20155;-71
2023/01/10 11:02:30;;;;;;;17.38;5.03;;;7.50;99.90;;;;;;5032634;28;20474;-69
2023/01/10 11:05:02;;;;;;;14.00;5.32;;;7.60;99.90;;;;;;5030568;28;20124;-71
2023/01/10 11:07:33;;;;;;;21.42;5.63;;;7.50;99.90;;;;;;5037769;28;20026;-68
2023/01/10 11:12:32;;;;;;;20.05;5.78;;;7.50;99.90;;;;;;5042984;28;20029;-67
2023/01/10 11:14:58;;;;;;;13.23;4.82;;;7.50;99.90;;;;;;5031071;28;20033;-69
2023/01/10 11:17:32;;;;;;;22.17;6.07;;;7.60;99.90;;;;;;5038147;28;20053;-71
2023/01/10 11:20:12;;;;;;;18.15;5.22;;;7.50;99.90;;;;;;5039030;28;20410;-70
2023/01/10 11:22:45;;;;;;;13.50;3.83;;;7.60;99.90;;;;;;5030026;28;20033;-69
2023/01/10 11:25:21;;;;;;;15.07;4.35;;;7.70;99.90;;;;;;5039792;28;20053;-69
2023/01/10 11:27:51;;;;;;;23.58;4.38;;;7.90;99.90;;;;;;5037684;28;20025;-71
2023/01/10 11:30:22;;;;;;;17.42;4.85;;;8.40;99.90;;;;;;5030356;28;20120;-71
2023/01/10 11:32:52;;;;;;;19.02;3.85;;;8.60;99.90;;;;;;5040746;28;20033;-70
2023/01/10 11:35:26;;;;;;;10.45;3.53;;;8.90;99.90;;;;;;5032832;28;20029;-71
2023/01/10 11:38:30;;;;;;;14.75;3.60;;;9.00;99.90;;;;;;5034485;28;20689;-71
2023/01/10 11:41:02;;;;;;;24.48;4.30;;;9.00;99.90;;;;;;4993952;28;20037;-71
2023/01/10 11:43:37;;;;;;;18.23;3.35;;;8.70;99.90;;;;;;5003068;28;20451;-71
2023/01/10 11:46:14;;;;;;;20.48;3.58;;;8.60;99.90;;;;;;5003260;28;20046;-69
2023/01/10 11:48:50;;;;;;;16.95;3.45;;;8.70;99.90;;;;;;5000751;28;20026;-68
2023/01/10 11:51:24;;;;;;;13.55;3.03;;;8.80;99.90;;;;;;4995860;28;20037;-68
2023/01/10 11:53:58;;;;;;;12.70;3.03;;;8.80;99.90;;;;;;5003133;28;20040;-70
2023/01/10 11:56:30;;;;;;;13.50;3.95;;;8.80;99.90;;;;;;5004026;28;20077;-73
2023/01/10 11:58:59;;;;;;;10.70;3.00;;;8.80;99.90;;;;;;5004032;28;20038;-69
2023/01/10 12:01:30;;;;;;;14.20;3.50;;;8.80;99.90;;;;;;5003188;28;20037;-70
2023/01/10 12:03:56;;;;;;;13.50;4.13;;;8.70;99.90;;;;;;4995977;28;20030;-68
2023/01/10 12:06:23;;;;;;;11.02;2.95;;;8.60;99.90;;;;;;5003736;28;20084;-69
2023/01/10 12:08:49;;;;;;;20.73;3.53;;;8.60;99.90;;;;;;5003100;28;20484;-70
2023/01/10 12:11:30;;;;;;;15.35;4.30;;;8.50;99.90;;;;;;5015892;28;20051;-68
2023/01/10 12:13:58;;;;;;;22.20;3.55;;;8.40;99.90;;;;;;5032820;28;20033;-69
2023/01/10 12:16:31;;;;;;;14.40;3.70;;;8.50;99.90;;;;;;5042254;28;20104;-70
2023/01/10 12:19:00;;;;;;;14.13;2.97;;;8.50;99.90;;;;;;5030833;28;20513;-69
2023/01/10 12:21:26;;;;;;;13.05;3.60;;;8.60;99.90;;;;;;5036958;28;20395;-70
2023/01/10 12:23:54;;;;;;;10.52;3.20;;;8.50;99.90;;;;;;5037429;28;20029;-71
2023/01/10 12:26:20;;;;;;;17.75;3.63;;;8.40;99.90;;;;;;5032061;28;20317;-71
2023/01/10 12:28:53;;;;;;;20.35;3.33;;;8.30;99.90;;;;;;5045715;28;20104;-67
2023/01/10 12:31:21;;;;;;;16.98;3.45;;;8.50;99.90;;;;;;5037537;28;20026;-68
2023/01/10 12:33:54;;;;;;;19.48;3.40;;;8.60;99.90;;;;;;5042987;28;20538;-72
2023/01/10 12:36:19;;;;;;;33.25;3.47;;;8.60;99.90;;;;;;5035735;28;20308;-65
2023/01/10 12:39:03;;;;;;;28.58;3.80;;;8.50;99.90;;;;;;5046733;28;20014;-70
2023/01/10 12:44:40;;;;;;;26.75;4.05;;;8.60;99.90;;;;;;5039651;28;20032;-66
2023/01/10 12:47:24;;;;;;;13.27;2.40;;;8.90;99.90;;;;;;5034924;28;20136;-67
2023/01/10 12:50:01;;;;;;;14.20;2.17;;;8.80;99.90;;;;;;5037226;28;20029;-69
2023/01/10 12:52:51;;;;;;;9.30;2.42;;;8.80;99.90;;;;;;5045276;28;20037;-71
2023/01/10 12:55:19;;;;;;;15.20;2.45;;;8.80;99.90;;;;;;5042633;28;20025;-70
2023/01/10 12:57:52;;;;;;;21.30;2.92;;;8.80;99.90;;;;;;5039465;28;20502;-69
2023/01/10 13:00:20;;;;;;;13.77;2.30;;;8.70;99.90;;;;;;5038482;28;20044;-68
2023/01/10 13:02:48;;;;;;;16.95;2.10;;;8.70;99.90;;;;;;5032055;28;20025;-69
2023/01/10 13:05:22;;;;;;;10.88;2.03;;;8.60;99.90;;;;;;5041416;28;20046;-71
2023/01/10 13:07:49;;;;;;;;;;;8.50;99.90;;;;;;5040716;28;20040;-69
2023/01/10 13:10:19;;;;;;;14.43;1.95;;;8.50;99.90;;;;;;5033300;28;19905;-69
2023/01/10 13:13:20;;;;;;;21.05;3.10;;;8.40;99.90;;;;;;5043517;28;20076;-69
2023/01/10 13:16:14;;;;;;;14.65;1.95;;;8.40;99.90;;;;;;5013856;28;20093;-68
2023/01/10 13:18:59;;;;;;;11.55;1.92;;;8.40;99.90;;;;;;5032871;28;20029;-71
2023/01/10 13:21:25;;;;;;;10.23;1.65;;;8.30;99.90;;;;;;5040898;28;20033;-69
2023/01/10 13:24:00;;;;;;;14.27;2.08;;;8.20;99.90;;;;;;5040873;28;20033;-70
2023/01/10 13:26:44;;;;;;;9.75;2.40;;;8.20;99.90;;;;;;5039884;28;20047;-66
2023/01/10 13:29:13;;;;;;;14.65;1.92;;;8.10;99.90;;;;;;5034992;28;20448;-68
2023/01/10 13:31:39;;;;;;;18.80;2.92;;;8.10;99.90;;;;;;5038452;28;20503;-70
2023/01/10 13:34:09;;;;;;;20.88;2.38;;;8.00;99.90;;;;;;5042389;28;20064;-72
2023/01/10 13:37:00;;;;;;;16.45;2.47;;;7.90;99.90;;;;;;5032636;28;20085;-70
2023/01/10 13:39:47;;;;;;;16.20;2.28;;;7.80;99.90;;;;;;5029126;28;20498;-69
2023/01/10 13:45:17;;;;;;;16.15;2.33;;;7.70;99.90;;;;;;5035715;28;20028;-69
2023/01/10 13:47:43;;;;;;;19.55;2.63;;;7.60;99.90;;;;;;5037166;28;20018;-69
2023/01/10 13:50:35;;;;;;;18.05;2.67;;;7.50;99.90;;;;;;5043319;28;20024;-71
2023/01/10 13:53:04;;;;;;;15.68;2.97;;;7.50;99.90;;;;;;5034050;28;20443;-68
2023/01/10 13:55:38;;;;;;;16.77;2.65;;;7.50;99.90;;;;;;5046974;28;20034;-71
2023/01/10 13:58:13;;;;;;;19.15;3.03;;;7.50;99.90;;;;;;5032592;28;20026;-68
2023/01/10 14:03:36;;;;;;;26.13;3.00;;;7.50;99.90;;;;;;5033894;28;20040;-69
2023/01/10 14:06:04;;;;;;;15.25;2.75;;;7.60;99.90;;;;;;5033022;28;20576;-68
2023/01/10 14:08:31;;;;;;;14.52;2.97;;;7.80;99.90;;;;;;5043929;28;20029;-67
2023/01/10 14:11:08;;;;;;;20.08;2.92;;;7.90;99.90;;;;;;5054330;28;20475;-66
2023/01/10 14:13:35;;;;;;;19.80;2.78;;;7.80;99.90;;;;;;5053258;28;20025;-66
2023/01/10 14:16:01;;;;;;;19.02;3.05;;;7.70;99.90;;;;;;5054225;28;20029;-67
2023/01/10 14:18:34;;;;;;;21.48;2.92;;;7.50;99.90;;;;;;5053858;28;20056;-67
2023/01/10 14:21:04;;;;;;;14.50;3.00;;;7.40;99.90;;;;;;5053075;28;20021;-66
2023/01/10 14:23:42;;;;;;;14.48;3.17;;;7.20;99.90;;;;;;5053101;28;20021;-66
2023/01/10 14:26:36;;;;;;;12.48;3.10;;;7.10;99.90;;;;;;5053509;28;20090;-66
2023/01/10 14:29:12;;;;;;;12.27;2.53;;;7.10;99.90;;;;;;5053175;28;20037;-65
2023/01/10 14:31:43;;;;;;;12.00;2.67;;;7.10;99.90;;;;;;5053305;28;20025;-65
2023/01/10 14:34:16;;;;;;;11.65;3.63;;;7.00;99.90;;;;;;5052697;28;20084;-67
2023/01/10 14:37:00;;;;;;;12.57;3.42;;;6.90;99.90;;;;;;5052556;28;20068;-66
2023/01/10 14:39:27;;;;;;;14.27;3.10;;;6.90;99.90;;;;;;5053320;28;20029;-65
2023/01/10 14:41:58;;;;;;;13.07;3.53;;;6.90;99.90;;;;;;5053456;28;20025;-67
2023/01/10 14:44:34;;;;;;;22.75;3.38;;;6.80;99.90;;;;;;5053530;28;20108;-66
2023/01/10 14:47:03;;;;;;;22.73;4.28;;;6.80;99.90;;;;;;5052842;28;20501;-65
2023/01/10 14:49:34;;;;;;;20.33;3.55;;;6.80;99.90;;;;;;5051851;28;20067;-66
2023/01/10 14:52:20;;;;;;;17.10;3.20;;;6.80;99.90;;;;;;5052268;28;20083;-67
2023/01/10 14:54:53;;;;;;;18.92;4.05;;;6.80;99.90;;;;;;4685040;28;10000866;-68
2023/01/10 14:57:21;;;;;;;8.40;2.90;;;6.80;99.90;;;;;;5049470;28;20029;-66
2023/01/10 14:59:48;;;;;;;20.92;3.47;;;6.90;99.90;;;;;;5050913;28;20028;-66
2023/01/10 15:02:24;;;;;;;10.98;3.17;;;6.90;99.90;;;;;;5049859;28;20041;-66
2023/01/10 15:04:58;;;;;;;14.43;3.72;;;6.80;99.90;;;;;;5049423;28;20021;-65
2023/01/10 15:07:25;;;;;;;20.83;4.72;;;6.70;99.90;;;;;;5049663;28;20051;-68
2023/01/10 15:09:56;;;;;;;15.10;4.30;;;6.80;99.90;;;;;;5049493;28;20118;-68
2023/01/10 15:12:23;;;;;;;14.65;4.07;;;6.80;99.90;;;;;;5049411;28;20029;-67
2023/01/10 15:14:59;;;;;;;22.13;3.88;;;6.80;99.90;;;;;;5049063;28;20039;-68
2023/01/10 15:17:26;;;;;;;21.67;3.97;;;6.80;99.90;;;;;;5048633;28;20145;-68
2023/01/10 15:19:53;;;;;;;9.93;3.35;;;6.70;99.90;;;;;;5049093;28;20029;-65
2023/01/10 15:22:31;;;;;;;14.40;3.10;;;6.60;99.90;;;;;;5048475;28;20032;-65
2023/01/10 15:25:03;;;;;;;14.90;3.72;;;6.60;99.90;;;;;;5048408;28;20024;-65
2023/01/10 15:27:29;;;;;;;17.23;3.28;;;6.60;99.90;;;;;;5048435;28;20024;-67
2023/01/10 15:29:56;;;;;;;13.00;3.75;;;6.60;99.90;;;;;;5048389;28;20063;-67
2023/01/10 15:32:37;;;;;;;22.02;4.63;;;6.70;99.90;;;;;;5048552;28;20056;-69
2023/01/10 15:35:04;;;;;;;22.38;3.92;;;6.80;99.90;;;;;;5047094;28;20036;-66
2023/01/10 15:37:35;;;;;;;15.27;2.97;;;6.80;99.90;;;;;;5048343;28;20052;-68
2023/01/10 15:40:06;;;;;;;14.20;3.38;;;6.80;99.90;;;;;;5048178;28;20124;-65
2023/01/10 15:42:34;;;;;;;20.80;4.35;;;6.70;99.90;;;;;;5049050;28;20021;-68
2023/01/10 15:45:36;;;;;;;20.92;4.03;;;6.70;99.90;;;;;;5048284;28;20091;-66
2023/01/10 15:48:02;;;;;;;23.60;4.53;;;6.50;99.90;;;;;;5048996;28;20438;-70
2023/01/10 15:50:37;;;;;;;8.35;2.85;;;6.50;99.90;;;;;;5048939;28;20055;-68
2023/01/10 15:53:07;;;;;;;;;;;6.50;99.90;;;;;;5043610;28;20056;-67
2023/01/10 15:55:35;;;;;;;14.43;3.35;;;5.00;99.90;;;;;;5028533;28;20394;-67
2023/01/10 15:58:01;;;;;;;15.63;3.63;;;6.50;99.90;;;;;;5035359;28;20037;-65
2023/01/10 16:00:28;;;;;;;14.32;3.10;;;6.60;99.90;;;;;;5048034;28;20700;-64
2023/01/10 16:02:55;;;;;;;14.98;3.53;;;6.60;99.90;;;;;;5051774;28;20040;-67
2023/01/10 16:05:21;;;;;;;19.25;3.33;;;6.70;99.90;;;;;;5052887;28;20530;-65
2023/01/10 16:07:48;;;;;;;14.10;3.78;;;6.70;99.90;;;;;;5052393;28;20025;-67
2023/01/10 16:10:26;;;;;;;12.52;2.83;;;6.70;99.90;;;;;;5052304;28;20057;-68
2023/01/10 16:15:42;;;;;;;12.65;3.65;;;6.70;99.90;;;;;;5051929;28;20067;-68
2023/01/10 16:18:08;;;;;;;18.83;4.60;;;6.70;99.90;;;;;;5051578;28;20036;-67
2023/01/10 16:20:44;;;;;;;11.90;3.08;;;6.70;99.90;;;;;;5051832;28;20021;-67
2023/01/10 16:23:16;;;;;;;21.92;3.28;;;6.90;99.90;;;;;;5051860;28;20029;-66
2023/01/10 16:25:45;;;;;;;16.70;2.95;;;6.70;99.90;;;;;;5051375;28;20081;-65
2023/01/10 16:28:14;;;;;;;11.05;3.28;;;6.60;99.90;;;;;;5051425;28;20032;-65
2023/01/10 16:30:44;;;;;;;17.10;3.70;;;6.60;99.90;;;;;;5051491;28;20044;-69
2023/01/10 16:33:16;;;;;;;26.25;6.70;;;6.60;99.90;;;;;;5051420;28;20384;-64
2023/01/10 16:35:46;;;;;;;21.27;9.50;;;6.50;99.90;;;;;;5051810;28;20379;-68
2023/01/10 16:38:14;;;;;;;55.80;18.02;;;6.60;99.90;;;;;;5053285;28;20028;-65
2023/01/10 16:40:42;;;;;;;27.75;8.40;;;6.60;99.90;;;;;;5053795;28;20073;-63
2023/01/10 16:43:20;;;;;;;17.10;5.05;;;6.50;99.90;;;;;;5051947;28;20032;-66
2023/01/10 16:45:58;;;;;;;19.00;5.72;;;6.60;99.90;;;;;;5052423;28;20128;-62
2023/01/10 16:48:28;;;;;;;25.60;5.22;;;6.60;99.90;;;;;;5050716;28;20075;-68
2023/01/10 16:51:02;;;;;;;10.02;5.22;;;6.60;99.90;;;;;;5051215;28;20029;-66
2023/01/10 16:53:28;;;;;;;10.65;3.63;;;6.60;99.90;;;;;;5043000;28;20045;-68
2023/01/10 16:55:54;;;;;;;21.10;5.38;;;6.60;99.90;;;;;;5033210;28;20075;-66
2023/01/10 16:58:19;;;;;;;18.02;4.32;;;6.60;99.90;;;;;;5052048;28;20029;-65
2023/01/10 17:00:48;;;;;;;14.60;5.68;;;6.50;99.90;;;;;;5050858;28;20029;-68
2023/01/10 17:03:19;;;;;;;11.95;3.95;;;6.40;99.90;;;;;;5050439;28;20107;-63
2023/01/10 17:05:45;;;;;;;9.45;3.28;;;6.40;99.90;;;;;;5050833;28;20494;-66
2023/01/10 17:08:19;;;;;;;16.40;3.53;;;6.40;99.90;;;;;;5051018;28;20184;-66
2023/01/10 17:10:47;;;;;;;11.95;3.83;;;6.30;99.90;;;;;;5051041;28;20110;-68
2023/01/10 17:13:23;;;;;;;14.52;3.72;;;6.30;99.90;;;;;;5049884;28;20045;-67
2023/01/10 17:15:49;;;;;;;23.95;3.88;;;6.30;99.90;;;;;;5050898;28;20328;-62
2023/01/10 17:18:14;;;;;;;13.32;3.80;;;6.20;99.90;;;;;;5051452;28;20443;-67
2023/01/10 17:20:40;;;;;;;6.90;3.25;;;6.20;99.90;;;;;;5050697;28;20025;-65
2023/01/10 17:23:08;;;;;;;13.18;3.72;;;6.20;99.90;;;;;;5050144;28;20112;-65
2023/01/10 17:25:34;;;;;;;14.05;3.78;;;6.10;99.90;;;;;;5050226;28;20151;-64
2023/01/10 17:27:59;;;;;;;11.32;3.50;;;6.00;99.90;;;;;;5050217;28;20132;-66
2023/01/10 17:30:25;;;;;;;20.35;4.72;;;5.90;99.90;;;;;;5050420;28;20112;-66
2023/01/10 17:32:50;;;;;;;12.27;4.07;;;5.80;99.90;;;;;;5050113;28;20054;-63
2023/01/10 17:35:17;;;;;;;16.45;3.95;;;5.70;99.90;;;;;;5050161;28;20037;-66
2023/01/10 17:37:42;;;;;;;16.17;3.83;;;5.70;99.90;;;;;;5049589;28;20486;-66
2023/01/10 17:40:09;;;;;;;16.30;4.43;;;5.70;99.90;;;;;;5050493;28;20063;-60
2023/01/10 17:42:34;;;;;;;11.68;4.15;;;5.60;99.90;;;;;;5051258;28;20242;-66
2023/01/10 17:45:00;;;;;;;10.10;3.30;;;5.70;99.90;;;;;;5050125;28;20223;-64
2023/01/10 17:47:26;;;;;;;9.50;4.03;;;5.60;99.90;;;;;;5051494;28;20483;-67
2023/01/10 17:49:51;;;;;;;12.63;3.50;;;5.60;99.90;;;;;;5050848;28;20045;-66
2023/01/10 17:52:17;;;;;;;17.75;3.90;;;5.60;99.90;;;;;;5049468;28;20116;-67
2023/01/10 17:54:43;;;;;;;16.42;3.97;;;5.60;99.90;;;;;;5041094;28;20207;-64
2023/01/10 17:57:10;;;;;;;16.17;3.67;;;5.70;99.90;;;;;;5049893;28;20024;-66
2023/01/10 17:59:35;;;;;;;14.23;4.07;;;5.70;99.90;;;;;;5049594;28;20044;-66
2023/01/10 18:02:01;;;;;;;7.80;4.10;;;5.80;99.90;;;;;;5049884;28;20048;-65
2023/01/10 18:04:27;;;;;;;13.73;3.58;;;5.80;99.90;;;;;;5049287;28;20111;-66
2023/01/10 18:06:52;;;;;;;16.95;5.20;;;5.80;99.90;;;;;;5049407;28;20555;-66
2023/01/10 18:09:18;;;;;;;10.35;4.60;;;5.80;99.90;;;;;;5049856;28;20513;-67
2023/01/10 18:11:44;;;;;;;10.57;4.07;;;5.80;99.90;;;;;;5049959;28;20078;-68
2023/01/10 18:16:54;;;;;;;23.58;4.32;;;5.80;99.90;;;;;;5050315;28;20502;-66
2023/01/10 18:19:19;;;;;;;13.13;5.13;;;5.80;99.90;;;;;;5049264;28;20032;-66
2023/01/10 18:21:46;;;;;;;11.65;4.53;;;5.80;99.90;;;;;;5050157;28;20027;-67
2023/01/10 18:24:13;;;;;;;11.52;4.05;;;5.70;99.90;;;;;;5049152;28;20795;-66
2023/01/10 18:26:38;;;;;;;13.35;4.30;;;5.70;99.90;;;;;;5051106;28;20033;-68
2023/01/10 18:29:04;;;;;;;10.60;4.32;;;5.70;99.90;;;;;;5050886;28;20025;-66
2023/01/10 18:31:29;;;;;;;15.18;6.22;;;5.60;99.90;;;;;;5052192;28;20025;-64
2023/01/10 18:33:55;;;;;;;9.77;4.72;;;5.60;99.90;;;;;;5050938;28;20124;-66
2023/01/10 18:36:23;;;;;;;16.95;5.60;;;5.50;99.90;;;;;;5050325;28;20043;-69
2023/01/10 18:38:50;;;;;;;10.27;3.80;;;5.50;99.90;;;;;;5049473;28;20124;-66
2023/01/10 18:41:17;;;;;;;25.02;5.30;;;5.30;99.90;;;;;;5049104;28;20029;-68
2023/01/10 18:43:43;;;;;;;14.73;4.78;;;5.30;99.90;;;;;;5049290;28;20036;-66
2023/01/10 18:46:11;;;;;;;16.15;4.88;;;5.30;99.90;;;;;;5050069;28;20372;-65
2023/01/10 18:48:37;;;;;;;11.65;4.95;;;5.40;99.90;;;;;;5047196;28;20067;-65
2023/01/10 18:51:03;;;;;;;17.88;4.97;;;5.20;99.90;;;;;;5039926;28;20049;-64
2023/01/10 18:53:30;;;;;;;15.15;5.05;;;5.10;99.90;;;;;;5037597;28;20483;-67
2023/01/10 18:55:57;;;;;;;15.07;4.72;;;5.00;99.90;;;;;;5033676;28;20037;-66
2023/01/10 18:58:29;;;;;;;20.55;6.18;;;5.00;99.90;;;;;;5030327;28;20026;-66
2023/01/10 19:00:55;;;;;;;26.65;6.53;;;4.90;99.90;;;;;;5032091;28;20037;-63
2023/01/10 19:03:21;;;;;;;24.90;5.35;;;4.80;99.90;;;;;;5042259;28;20029;-66
2023/01/10 19:05:47;;;;;;;18.70;5.00;;;4.80;99.90;;;;;;5031010;28;20412;-66
2023/01/10 19:08:13;;;;;;;17.75;4.85;;;4.80;99.90;;;;;;5032328;28;20522;-63
2023/01/10 19:10:42;;;;;;;29.60;4.97;;;4.80;99.90;;;;;;5034764;28;20036;-67
2023/01/10 19:13:08;;;;;;;24.48;6.35;;;4.70;99.90;;;;;;5037001;28;20025;-66
2023/01/10 19:15:34;;;;;;;28.67;7.95;;;4.70;99.90;;;;;;5027819;28;20022;-66
2023/01/10 19:17:59;;;;;;;15.90;5.80;;;4.70;99.90;;;;;;5034333;28;20494;-67
2023/01/10 19:20:25;;;;;;;20.25;5.43;;;4.70;99.90;;;;;;5030363;28;20081;-67
2023/01/10 19:22:51;;;;;;;10.60;5.07;;;4.70;99.90;;;;;;5048129;28;20407;-68
2023/01/10 19:25:16;;;;;;;14.07;6.28;;;4.60;99.90;;;;;;5039254;28;20048;-65
2023/01/10 19:27:42;;;;;;;9.02;4.53;;;4.60;99.90;;;;;;5048164;28;20069;-67
2023/01/10 19:30:09;;;;;;;15.35;5.85;;;4.60;99.90;;;;;;5034589;28;20057;-65
2023/01/10 19:32:37;;;;;;;14.60;5.80;;;4.60;99.90;;;;;;5045666;28;20055;-66
2023/01/10 19:35:03;;;;;;;15.27;4.95;;;4.60;99.90;;;;;;5048561;28;20033;-66
2023/01/10 19:37:31;;;;;;;16.95;5.43;;;4.60;99.90;;;;;;5048483;28;20550;-65
2023/01/10 19:39:56;;;;;;;21.23;5.50;;;4.50;99.90;;;;;;5035521;28;20038;-65
2023/01/10 19:42:22;;;;;;;18.42;7.20;;;4.50;99.90;;;;;;5043413;28;20032;-66
2023/01/10 19:44:47;;;;;;;27.58;4.90;;;4.40;99.90;;;;;;5050847;28;20021;-62
2023/01/10 19:47:14;;;;;;;14.38;5.03;;;4.70;99.90;;;;;;5050925;28;20403;-64
2023/01/10 19:49:40;;;;;;;19.20;5.20;;;4.40;99.90;;;;;;5050895;28;20108;-66
2023/01/10 19:52:06;;;;;;;21.77;5.63;;;4.40;99.90;;;;;;5049439;28;20454;-66
2023/01/10 19:54:32;;;;;;;16.52;5.57;;;4.40;99.90;;;;;;5051197;28;20036;-65
2023/01/10 19:56:58;;;;;;;22.10;5.28;;;4.50;99.90;;;;;;5049569;28;20395;-64
2023/01/10 19:59:25;;;;;;;13.65;6.10;;;4.50;99.90;;;;;;5050804;28;20059;-66
2023/01/10 20:02:30;;;;;;;23.48;6.53;;;4.60;99.90;;;;;;5066372;22;20049;-69
2023/01/10 20:05:03;;;;;;;19.53;7.47;;;4.40;99.90;;;;;;5046818;28;20032;-69
2023/01/10 20:07:29;;;;;;;15.55;6.50;;;4.80;99.90;;;;;;5052250;28;20738;-65
2023/01/10 20:09:55;;;;;;;13.40;5.18;;;4.40;99.90;;;;;;5051296;28;20044;-69
2023/01/10 20:13:17;;;;;;;14.32;5.28;;;4.30;99.90;;;;;;5051890;28;20045;-69
2023/01/10 20:16:11;;;;;;;17.40;4.78;;;4.30;99.90;;;;;;5046858;28;20037;-67
2023/01/10 20:18:45;;;;;;;14.55;5.13;;;4.30;99.90;;;;;;5010002;28;20030;-68
2023/01/10 20:21:17;;;;;;;19.90;4.40;;;4.20;99.90;;;;;;5011316;28;20026;-68
2023/01/10 20:23:46;;;;;;;15.85;4.97;;;4.20;99.90;;;;;;5009739;28;20120;-67
2023/01/10 20:26:26;;;;;;;16.02;4.28;;;5.30;99.90;;;;;;5011111;28;20030;-68
2023/01/10 20:28:54;;;;;;;11.45;4.72;;;4.20;99.90;;;;;;5012054;28;20449;-68
2023/01/10 20:31:23;;;;;;;25.20;6.75;;;4.30;99.90;;;;;;5011477;28;20018;-69
2023/01/10 20:33:49;;;;;;;18.75;4.10;;;4.30;99.90;;;;;;5026339;28;20056;-71
2023/01/10 20:36:23;;;;;;;10.95;3.97;;;4.30;99.90;;;;;;5026316;28;20416;-70
2023/01/10 20:38:50;;;;;;;15.50;3.53;;;4.30;99.90;;;;;;5011371;28;20029;-67
2023/01/10 20:41:23;;;;;;;12.95;4.38;;;4.60;99.90;;;;;;5011790;28;20022;-69
2023/01/10 20:43:49;;;;;;;13.82;4.65;;;4.40;99.90;;;;;;5009554;28;20026;-69
2023/01/10 20:46:27;;;;;;;19.38;4.78;;;4.30;99.90;;;;;;5009654;28;20068;-68
2023/01/10 20:48:54;;;;;;;14.10;4.05;;;4.30;99.90;;;;;;5016245;28;20029;-67
2023/01/10 20:51:23;;;;;;;13.80;3.70;;;4.20;99.90;;;;;;5014344;28;20442;-67
2023/01/10 20:53:49;;;;;;;13.52;3.83;;;4.20;99.90;;;;;;5031259;28;20033;-70
2023/01/10 20:56:18;;;;;;;5.97;3.92;;;4.20;99.90;;;;;;5034123;28;20372;-67